sensor_id;sensor_type;location;lat;lon;timestamp;P1;durP1;ratioP1;P2;durP2;ratioP2
15816;SDS011;8009;50.070;8.232;2023-04-22T02:54:42;15.17;;;14.57;;
15816;SDS011;8009;50.070;8.232;2023-04-22T03:00:21;10.53;;;10.13;;
15816;SDS011;8009;50.070;8.232;2023-04-22T03:02:50;14.30;;;13.80;;
15816;SDS011;8009;50.070;8.232;2023-04-22T03:05:18;15.63;;;15.03;;
15816;SDS011;8009;50.070;8.232;2023-04-22T03:07:47;12.97;;;12.47;;
15816;SDS011;8009;50.070;8.232;2023-04-22T03:23:04;14.17;;;13.67;;
15816;SDS011;8009;50.070;8.232;2023-04-22T03:28:16;12.63;;;12.13;;
15816;SDS011;8009;50.070;8.232;2023-04-22T03:30:44;13.80;;;13.30;;
15816;SDS011;8009;50.070;8.232;2023-04-22T03:33:13;14.03;;;13.53;;
15816;SDS011;8009;50.070;8.232;2023-04-22T03:35:41;11.37;;;10.97;;
15816;SDS011;8009;50.070;8.232;2023-04-22T03:41:23;12.43;;;11.93;;
15816;SDS011;8009;50.070;8.232;2023-04-22T03:43:52;12.77;;;12.27;;
15816;SDS011;8009;50.070;8.232;2023-04-22T03:46:20;12.07;;;11.67;;
15816;SDS011;8009;50.070;8.232;2023-04-22T03:48:48;14.43;;;13.90;;
15816;SDS011;8009;50.070;8.232;2023-04-22T03:51:17;14.90;;;14.37;;
15816;SDS011;8009;50.070;8.232;2023-04-22T03:53:45;14.23;;;13.73;;
15816;SDS011;8009;50.070;8.232;2023-04-22T03:56:13;14.40;;;13.90;;
15816;SDS011;8009;50.070;8.232;2023-04-22T03:58:44;13.73;;;13.23;;
15816;SDS011;8009;50.070;8.232;2023-04-22T04:01:14;13.93;;;13.43;;
15816;SDS011;8009;50.070;8.232;2023-04-22T04:03:42;14.30;;;13.80;;
15816;SDS011;8009;50.070;8.232;2023-04-22T04:06:10;15.37;;;14.77;;
15816;SDS011;8009;50.070;8.232;2023-04-22T04:08:39;14.50;;;14.00;;
15816;SDS011;8009;50.070;8.232;2023-04-22T04:14:03;15.17;;;14.57;;
15816;SDS011;8009;50.070;8.232;2023-04-22T04:16:32;13.97;;;13.47;;
15816;SDS011;8009;50.070;8.232;2023-04-22T04:19:04;14.70;;;14.20;;
15816;SDS011;8009;50.070;8.232;2023-04-22T04:21:32;14.33;;;13.80;;
15816;SDS011;8009;50.070;8.232;2023-04-22T04:49:30;16.07;;;15.47;;
15816;SDS011;8009;50.070;8.232;2023-04-22T04:52:03;14.13;;;13.63;;
15816;SDS011;8009;50.070;8.232;2023-04-22T04:54:34;14.83;;;14.30;;
15816;SDS011;8009;50.070;8.232;2023-04-22T04:57:03;12.97;;;12.47;;
15816;SDS011;8009;50.070;8.232;2023-04-22T04:59:34;13.27;;;12.77;;
15816;SDS011;8009;50.070;8.232;2023-04-22T05:02:04;14.60;;;14.10;;
15816;SDS011;8009;50.070;8.232;2023-04-22T05:04:35;14.37;;;13.87;;
15816;SDS011;8009;50.070;8.232;2023-04-22T05:07:04;11.77;;;11.37;;
15816;SDS011;8009;50.070;8.232;2023-04-22T05:09:32;25.17;;;24.20;;
15816;SDS011;8009;50.070;8.232;2023-04-22T05:43:58;12.93;;;12.43;;
15816;SDS011;8009;50.070;8.232;2023-04-22T05:46:28;13.90;;;13.40;;
15816;SDS011;8009;50.070;8.232;2023-04-22T05:48:57;12.60;;;12.10;;
15816;SDS011;8009;50.070;8.232;2023-04-22T05:51:25;15.63;;;15.03;;
15816;SDS011;8009;50.070;8.232;2023-04-22T05:53:53;14.37;;;13.87;;
15816;SDS011;8009;50.070;8.232;2023-04-22T05:56:22;13.50;;;13.00;;
15816;SDS011;8009;50.070;8.232;2023-04-22T06:02:03;13.33;;;12.83;;
15816;SDS011;8009;50.070;8.232;2023-04-22T06:04:32;11.67;;;11.27;;
15816;SDS011;8009;50.070;8.232;2023-04-22T06:07:00;15.13;;;14.57;;
15816;SDS011;8009;50.070;8.232;2023-04-22T06:09:29;15.80;;;15.20;;
15816;SDS011;8009;50.070;8.232;2023-04-22T06:14:44;14.40;;;13.90;;
15816;SDS011;8009;50.070;8.232;2023-04-22T06:17:15;14.53;;;14.03;;
15816;SDS011;8009;50.070;8.232;2023-04-22T06:19:43;18.07;;;17.37;;
15816;SDS011;8009;50.070;8.232;2023-04-22T06:22:11;16.93;;;16.33;;
15816;SDS011;8009;50.070;8.232;2023-04-22T06:24:40;16.53;;;15.93;;
15816;SDS011;8009;50.070;8.232;2023-04-22T06:27:08;13.50;;;13.00;;
15816;SDS011;8009;50.070;8.232;2023-04-22T06:29:36;15.23;;;14.63;;
15816;SDS011;8009;50.070;8.232;2023-04-22T06:32:05;19.75;;;18.95;;
15816;SDS011;8009;50.070;8.232;2023-04-22T06:34:36;18.90;;;18.20;;
15816;SDS011;8009;50.070;8.232;2023-04-22T06:37:04;18.20;;;17.50;;
15816;SDS011;8009;50.070;8.232;2023-04-22T06:39:32;16.97;;;16.37;;
15816;SDS011;8009;50.070;8.232;2023-04-22T06:47:11;17.13;;;16.50;;
15816;SDS011;8009;50.070;8.232;2023-04-22T06:49:42;15.63;;;15.03;;
15816;SDS011;8009;50.070;8.232;2023-04-22T06:52:10;18.00;;;17.30;;
15816;SDS011;8009;50.070;8.232;2023-04-22T06:54:39;18.20;;;17.50;;
15816;SDS011;8009;50.070;8.232;2023-04-22T06:57:09;17.10;;;16.50;;
15816;SDS011;8009;50.070;8.232;2023-04-22T06:59:37;18.47;;;17.77;;
15816;SDS011;8009;50.070;8.232;2023-04-22T07:02:05;19.93;;;19.13;;
15816;SDS011;8009;50.070;8.232;2023-04-22T07:04:34;17.07;;;16.47;;
15816;SDS011;8009;50.070;8.232;2023-04-22T07:07:05;19.77;;;19.03;;
15816;SDS011;8009;50.070;8.232;2023-04-22T07:09:33;20.50;;;19.70;;
15816;SDS011;8009;50.070;8.232;2023-04-22T07:12:02;16.57;;;15.97;;
15816;SDS011;8009;50.070;8.232;2023-04-22T07:14:31;18.43;;;17.73;;
15816;SDS011;8009;50.070;8.232;2023-04-22T07:16:59;17.27;;;16.57;;
15816;SDS011;8009;50.070;8.232;2023-04-22T07:19:27;16.97;;;16.37;;
15816;SDS011;8009;50.070;8.232;2023-04-22T07:21:56;18.23;;;17.53;;
15816;SDS011;8009;50.070;8.232;2023-04-22T07:24:27;15.87;;;15.27;;
15816;SDS011;8009;50.070;8.232;2023-04-22T07:26:56;16.97;;;16.37;;
15816;SDS011;8009;50.070;8.232;2023-04-22T07:29:25;16.70;;;16.10;;
15816;SDS011;8009;50.070;8.232;2023-04-22T07:31:53;16.80;;;16.20;;
15816;SDS011;8009;50.070;8.232;2023-04-22T07:34:22;16.83;;;16.23;;
15816;SDS011;8009;50.070;8.232;2023-04-22T07:36:50;14.93;;;14.33;;
15816;SDS011;8009;50.070;8.232;2023-04-22T07:39:19;14.37;;;13.77;;
15816;SDS011;8009;50.070;8.232;2023-04-22T07:41:50;16.70;;;16.10;;
15816;SDS011;8009;50.070;8.232;2023-04-22T07:44:20;15.03;;;14.43;;
15816;SDS011;8009;50.070;8.232;2023-04-22T07:46:48;16.70;;;16.10;;
15816;SDS011;8009;50.070;8.232;2023-04-22T07:49:18;13.97;;;13.47;;
15816;SDS011;8009;50.070;8.232;2023-04-22T07:51:46;15.67;;;15.07;;
15816;SDS011;8009;50.070;8.232;2023-04-22T07:54:14;15.32;;;14.73;;
15816;SDS011;8009;50.070;8.232;2023-04-22T07:56:43;16.17;;;15.57;;
15816;SDS011;8009;50.070;8.232;2023-04-22T07:59:13;17.37;;;16.73;;
15816;SDS011;8009;50.070;8.232;2023-04-22T08:01:42;15.90;;;15.30;;
15816;SDS011;8009;50.070;8.232;2023-04-22T08:04:10;14.40;;;13.90;;
15816;SDS011;8009;50.070;8.232;2023-04-22T08:06:38;14.03;;;13.53;;
15816;SDS011;8009;50.070;8.232;2023-04-22T08:09:07;14.77;;;14.20;;
15816;SDS011;8009;50.070;8.232;2023-04-22T08:11:36;15.23;;;14.63;;
15816;SDS011;8009;50.070;8.232;2023-04-22T08:14:04;15.30;;;14.70;;
15816;SDS011;8009;50.070;8.232;2023-04-22T08:16:35;14.83;;;14.23;;
15816;SDS011;8009;50.070;8.232;2023-04-22T08:19:04;16.33;;;15.73;;
15816;SDS011;8009;50.070;8.232;2023-04-22T08:21:34;14.97;;;14.40;;
15816;SDS011;8009;50.070;8.232;2023-04-22T08:24:03;14.60;;;14.10;;
15816;SDS011;8009;50.070;8.232;2023-04-22T08:31:43;16.63;;;16.03;;
15816;SDS011;8009;50.070;8.232;2023-04-22T08:34:11;16.40;;;15.80;;
15816;SDS011;8009;50.070;8.232;2023-04-22T08:36:39;17.17;;;16.47;;
15816;SDS011;8009;50.070;8.232;2023-04-22T08:39:08;14.40;;;13.90;;
15816;SDS011;8009;50.070;8.232;2023-04-22T08:41:37;15.03;;;14.43;;
15816;SDS011;8009;50.070;8.232;2023-04-22T08:44:06;14.03;;;13.53;;
15816;SDS011;8009;50.070;8.232;2023-04-22T08:46:35;13.73;;;13.23;;
15816;SDS011;8009;50.070;8.232;2023-04-22T08:49:08;14.67;;;14.07;;
15816;SDS011;8009;50.070;8.232;2023-04-22T08:51:36;14.17;;;13.67;;
15816;SDS011;8009;50.070;8.232;2023-04-22T08:54:05;13.10;;;12.60;;
15816;SDS011;8009;50.070;8.232;2023-04-22T08:56:33;11.37;;;10.97;;
15816;SDS011;8009;50.070;8.232;2023-04-22T08:59:03;12.73;;;12.23;;
15816;SDS011;8009;50.070;8.232;2023-04-22T09:01:31;12.07;;;11.63;;
15816;SDS011;8009;50.070;8.232;2023-04-22T09:04:01;13.30;;;12.80;;
15816;SDS011;8009;50.070;8.232;2023-04-22T09:06:33;12.70;;;12.20;;
15816;SDS011;8009;50.070;8.232;2023-04-22T09:09:01;11.87;;;11.47;;
15816;SDS011;8009;50.070;8.232;2023-04-22T09:11:30;11.37;;;10.97;;
15816;SDS011;8009;50.070;8.232;2023-04-22T09:14:00;13.37;;;12.87;;
15816;SDS011;8009;50.070;8.232;2023-04-22T09:16:30;12.83;;;12.33;;
15816;SDS011;8009;50.070;8.232;2023-04-22T09:18:58;13.27;;;12.77;;
15816;SDS011;8009;50.070;8.232;2023-04-22T09:21:26;12.63;;;12.13;;
15816;SDS011;8009;50.070;8.232;2023-04-22T09:24:01;13.17;;;12.67;;
15816;SDS011;8009;50.070;8.232;2023-04-22T09:26:30;12.17;;;11.77;;
15816;SDS011;8009;50.070;8.232;2023-04-22T09:28:58;13.33;;;12.83;;
15816;SDS011;8009;50.070;8.232;2023-04-22T09:31:28;9.80;;;9.50;;
15816;SDS011;8009;50.070;8.232;2023-04-22T09:33:57;11.40;;;11.00;;
15816;SDS011;8009;50.070;8.232;2023-04-22T09:36:36;11.93;;;11.53;;
15816;SDS011;8009;50.070;8.232;2023-04-22T09:39:16;13.90;;;13.40;;
15816;SDS011;8009;50.070;8.232;2023-04-22T09:41:47;13.48;;;12.98;;
15816;SDS011;8009;50.070;8.232;2023-04-22T09:44:21;12.20;;;11.80;;
15816;SDS011;8009;50.070;8.232;2023-04-22T09:46:50;13.53;;;13.03;;
15816;SDS011;8009;50.070;8.232;2023-04-22T09:49:18;12.73;;;12.23;;
15816;SDS011;8009;50.070;8.232;2023-04-22T09:51:48;13.07;;;12.57;;
15816;SDS011;8009;50.070;8.232;2023-04-22T09:54:25;15.77;;;15.17;;
15816;SDS011;8009;50.070;8.232;2023-04-22T09:56:54;21.50;;;20.70;;
15816;SDS011;8009;50.070;8.232;2023-04-22T09:59:23;15.90;;;15.30;;
15816;SDS011;8009;50.070;8.232;2023-04-22T10:01:52;11.13;;;10.73;;
15816;SDS011;8009;50.070;8.232;2023-04-22T10:04:22;11.53;;;11.13;;
15816;SDS011;8009;50.070;8.232;2023-04-22T10:06:52;13.67;;;13.17;;
15816;SDS011;8009;50.070;8.232;2023-04-22T10:09:26;16.80;;;16.10;;
15816;SDS011;8009;50.070;8.232;2023-04-22T10:11:55;17.33;;;16.70;;
15816;SDS011;8009;50.070;8.232;2023-04-22T10:14:25;14.00;;;13.50;;
15816;SDS011;8009;50.070;8.232;2023-04-22T10:16:55;12.70;;;12.07;;
15816;SDS011;8009;50.070;8.232;2023-04-22T10:19:26;12.20;;;11.70;;
15816;SDS011;8009;50.070;8.232;2023-04-22T10:21:56;12.00;;;11.60;;
15816;SDS011;8009;50.070;8.232;2023-04-22T10:24:33;11.30;;;10.90;;
15816;SDS011;8009;50.070;8.232;2023-04-22T10:27:04;13.13;;;12.63;;
15816;SDS011;8009;50.070;8.232;2023-04-22T10:29:36;11.47;;;11.07;;
15816;SDS011;8009;50.070;8.232;2023-04-22T10:32:22;14.30;;;13.80;;
15816;SDS011;8009;50.070;8.232;2023-04-22T10:35:07;13.93;;;13.43;;
15816;SDS011;8009;50.070;8.232;2023-04-22T10:37:41;15.00;;;14.40;;
15816;SDS011;8009;50.070;8.232;2023-04-22T10:40:13;32.07;;;30.80;;
15816;SDS011;8009;50.070;8.232;2023-04-22T10:42:45;31.87;;;30.67;;
15816;SDS011;8009;50.070;8.232;2023-04-22T10:45:16;28.40;;;27.30;;
15816;SDS011;8009;50.070;8.232;2023-04-22T10:47:45;31.03;;;29.83;;
15816;SDS011;8009;50.070;8.232;2023-04-22T10:50:19;37.20;;;35.73;;
15816;SDS011;8009;50.070;8.232;2023-04-22T10:52:51;38.17;;;36.67;;
15816;SDS011;8009;50.070;8.232;2023-04-22T10:55:47;35.73;;;34.33;;
15816;SDS011;8009;50.070;8.232;2023-04-22T10:58:21;33.27;;;31.97;;
15816;SDS011;8009;50.070;8.232;2023-04-22T11:00:52;36.97;;;35.47;;
15816;SDS011;8009;50.070;8.232;2023-04-22T11:03:24;57.03;;;54.73;;
15816;SDS011;8009;50.070;8.232;2023-04-22T11:06:19;66.70;;;63.97;;
15816;SDS011;8009;50.070;8.232;2023-04-22T11:09:07;62.37;;;59.87;;
15816;SDS011;8009;50.070;8.232;2023-04-22T11:11:56;37.60;;;36.13;;
15816;SDS011;8009;50.070;8.232;2023-04-22T11:15:00;38.87;;;37.33;;
15816;SDS011;8009;50.070;8.232;2023-04-22T11:17:29;41.40;;;39.77;;
15816;SDS011;8009;50.070;8.232;2023-04-22T11:19:58;39.40;;;37.87;;
15816;SDS011;8009;50.070;8.232;2023-04-22T11:22:26;38.43;;;36.93;;
15816;SDS011;8009;50.070;8.232;2023-04-22T11:24:55;35.13;;;33.73;;
15816;SDS011;8009;50.070;8.232;2023-04-22T11:27:26;40.07;;;38.47;;
15816;SDS011;8009;50.070;8.232;2023-04-22T11:30:01;28.43;;;27.33;;
15816;SDS011;8009;50.070;8.232;2023-04-22T11:32:31;23.83;;;22.93;;
15816;SDS011;8009;50.070;8.232;2023-04-22T11:35:03;19.47;;;18.73;;
15816;SDS011;8009;50.070;8.232;2023-04-22T11:37:38;24.70;;;23.77;;
15816;SDS011;8009;50.070;8.232;2023-04-22T11:40:08;28.87;;;27.77;;
15816;SDS011;8009;50.070;8.232;2023-04-22T11:42:40;27.30;;;26.23;;
15816;SDS011;8009;50.070;8.232;2023-04-22T11:45:08;23.87;;;22.97;;
15816;SDS011;8009;50.070;8.232;2023-04-22T11:47:38;21.03;;;20.23;;
15816;SDS011;8009;50.070;8.232;2023-04-22T11:50:10;20.10;;;19.30;;
15816;SDS011;8009;50.070;8.232;2023-04-22T11:52:42;18.07;;;17.37;;
15816;SDS011;8009;50.070;8.232;2023-04-22T11:55:13;20.57;;;19.77;;
15816;SDS011;8009;50.070;8.232;2023-04-22T11:57:45;16.77;;;16.17;;
15816;SDS011;8009;50.070;8.232;2023-04-22T12:00:19;23.90;;;23.00;;
15816;SDS011;8009;50.070;8.232;2023-04-22T12:02:58;17.80;;;17.10;;
15816;SDS011;8009;50.070;8.232;2023-04-22T12:05:34;25.43;;;24.43;;
15816;SDS011;8009;50.070;8.232;2023-04-22T12:08:07;15.97;;;15.37;;
15816;SDS011;8009;50.070;8.232;2023-04-22T12:10:38;15.83;;;15.23;;
15816;SDS011;8009;50.070;8.232;2023-04-22T12:13:16;15.77;;;15.17;;
15816;SDS011;8009;50.070;8.232;2023-04-22T12:15:44;17.17;;;16.57;;
15816;SDS011;8009;50.070;8.232;2023-04-22T12:18:13;19.73;;;19.00;;
15816;SDS011;8009;50.070;8.232;2023-04-22T12:20:41;18.87;;;18.17;;
15816;SDS011;8009;50.070;8.232;2023-04-22T12:23:13;18.13;;;17.43;;
15816;SDS011;8009;50.070;8.232;2023-04-22T12:25:42;17.00;;;16.40;;
15816;SDS011;8009;50.070;8.232;2023-04-22T12:28:13;17.30;;;16.63;;
15816;SDS011;8009;50.070;8.232;2023-04-22T12:30:41;16.50;;;15.87;;
15816;SDS011;8009;50.070;8.232;2023-04-22T12:33:10;17.87;;;17.17;;
15816;SDS011;8009;50.070;8.232;2023-04-22T12:35:39;18.03;;;17.33;;
15816;SDS011;8009;50.070;8.232;2023-04-22T12:38:07;17.10;;;16.50;;
15816;SDS011;8009;50.070;8.232;2023-04-22T12:40:36;18.03;;;17.33;;
15816;SDS011;8009;50.070;8.232;2023-04-22T12:43:04;17.17;;;16.47;;
15816;SDS011;8009;50.070;8.232;2023-04-22T12:45:35;16.43;;;15.83;;
15816;SDS011;8009;50.070;8.232;2023-04-22T12:48:03;14.53;;;13.93;;
15816;SDS011;8009;50.070;8.232;2023-04-22T12:50:32;14.40;;;13.90;;
15816;SDS011;8009;50.070;8.232;2023-04-22T12:53:00;19.20;;;18.50;;
15816;SDS011;8009;50.070;8.232;2023-04-22T12:55:29;18.67;;;17.97;;
15816;SDS011;8009;50.070;8.232;2023-04-22T12:57:57;20.47;;;19.67;;
15816;SDS011;8009;50.070;8.232;2023-04-22T13:00:26;19.40;;;18.70;;
15816;SDS011;8009;50.070;8.232;2023-04-22T13:02:57;16.70;;;16.10;;
15816;SDS011;8009;50.070;8.232;2023-04-22T13:05:26;18.73;;;18.03;;
15816;SDS011;8009;50.070;8.232;2023-04-22T13:07:54;20.87;;;20.07;;
15816;SDS011;8009;50.070;8.232;2023-04-22T13:10:23;22.50;;;21.60;;
15816;SDS011;8009;50.070;8.232;2023-04-22T13:12:52;20.00;;;19.23;;
15816;SDS011;8009;50.070;8.232;2023-04-22T13:15:23;21.40;;;20.60;;
15816;SDS011;8009;50.070;8.232;2023-04-22T13:17:54;20.83;;;20.03;;
15816;SDS011;8009;50.070;8.232;2023-04-22T13:20:25;17.30;;;16.67;;
15816;SDS011;8009;50.070;8.232;2023-04-22T13:22:53;18.80;;;18.10;;
15816;SDS011;8009;50.070;8.232;2023-04-22T13:25:25;18.63;;;17.93;;
15816;SDS011;8009;50.070;8.232;2023-04-22T13:27:53;20.17;;;19.37;;
15816;SDS011;8009;50.070;8.232;2023-04-22T13:30:21;18.50;;;17.80;;
15816;SDS011;8009;50.070;8.232;2023-04-22T13:32:50;18.30;;;17.60;;
15816;SDS011;8009;50.070;8.232;2023-04-22T13:35:18;17.73;;;17.03;;
15816;SDS011;8009;50.070;8.232;2023-04-22T13:37:49;14.70;;;14.20;;
15816;SDS011;8009;50.070;8.232;2023-04-22T13:40:17;12.13;;;11.73;;
15816;SDS011;8009;50.070;8.232;2023-04-22T13:42:46;12.47;;;11.97;;
15816;SDS011;8009;50.070;8.232;2023-04-22T13:45:14;14.80;;;14.20;;
15816;SDS011;8009;50.070;8.232;2023-04-22T13:47:43;14.77;;;14.27;;
15816;SDS011;8009;50.070;8.232;2023-04-22T13:50:11;13.80;;;13.30;;
15816;SDS011;8009;50.070;8.232;2023-04-22T13:52:40;29.05;;;27.92;;
15816;SDS011;8009;50.070;8.232;2023-04-22T13:55:10;23.33;;;22.43;;
15816;SDS011;8009;50.070;8.232;2023-04-22T13:57:39;16.60;;;15.97;;
15816;SDS011;8009;50.070;8.232;2023-04-22T14:00:09;19.87;;;19.13;;
15816;SDS011;8009;50.070;8.232;2023-04-22T14:02:38;18.73;;;18.03;;
15816;SDS011;8009;50.070;8.232;2023-04-22T14:05:06;14.47;;;13.93;;
15816;SDS011;8009;50.070;8.232;2023-04-22T14:07:36;12.40;;;11.97;;
15816;SDS011;8009;50.070;8.232;2023-04-22T14:10:06;13.50;;;13.00;;
15816;SDS011;8009;50.070;8.232;2023-04-22T14:12:38;14.10;;;13.60;;
15816;SDS011;8009;50.070;8.232;2023-04-22T14:15:09;15.50;;;14.90;;
15816;SDS011;8009;50.070;8.232;2023-04-22T14:17:40;19.53;;;18.83;;
15816;SDS011;8009;50.070;8.232;2023-04-22T14:20:13;23.67;;;22.77;;
15816;SDS011;8009;50.070;8.232;2023-04-22T14:22:41;26.53;;;25.53;;
15816;SDS011;8009;50.070;8.232;2023-04-22T14:25:10;15.67;;;15.07;;
15816;SDS011;8009;50.070;8.232;2023-04-22T14:27:41;17.20;;;16.57;;
15816;SDS011;8009;50.070;8.232;2023-04-22T14:30:10;14.40;;;13.90;;
15816;SDS011;8009;50.070;8.232;2023-04-22T14:32:40;16.70;;;16.10;;
15816;SDS011;8009;50.070;8.232;2023-04-22T14:35:08;18.10;;;17.40;;
15816;SDS011;8009;50.070;8.232;2023-04-22T14:37:37;19.43;;;18.73;;
15816;SDS011;8009;50.070;8.232;2023-04-22T14:40:07;19.73;;;19.00;;
15816;SDS011;8009;50.070;8.232;2023-04-22T14:42:36;29.97;;;28.77;;
15816;SDS011;8009;50.070;8.232;2023-04-22T14:45:08;46.63;;;44.73;;
15816;SDS011;8009;50.070;8.232;2023-04-22T14:47:40;50.87;;;48.87;;
15816;SDS011;8009;50.070;8.232;2023-04-22T14:50:09;52.80;;;50.70;;
15816;SDS011;8009;50.070;8.232;2023-04-22T14:52:37;32.88;;;31.58;;
15816;SDS011;8009;50.070;8.232;2023-04-22T14:55:06;16.03;;;15.43;;
15816;SDS011;8009;50.070;8.232;2023-04-22T14:57:35;14.40;;;13.90;;
15816;SDS011;8009;50.070;8.232;2023-04-22T15:00:04;22.17;;;21.33;;
15816;SDS011;8009;50.070;8.232;2023-04-22T15:02:38;28.40;;;27.30;;
15816;SDS011;8009;50.070;8.232;2023-04-22T15:05:10;35.03;;;33.67;;
15816;SDS011;8009;50.070;8.232;2023-04-22T15:07:38;53.37;;;51.27;;
15816;SDS011;8009;50.070;8.232;2023-04-22T15:10:07;36.50;;;35.03;;
15816;SDS011;8009;50.070;8.232;2023-04-22T15:12:36;16.30;;;15.70;;
15816;SDS011;8009;50.070;8.232;2023-04-22T15:15:05;20.20;;;19.43;;
15816;SDS011;8009;50.070;8.232;2023-04-22T15:17:40;25.20;;;24.20;;
15816;SDS011;8009;50.070;8.232;2023-04-22T15:20:09;24.23;;;23.33;;
15816;SDS011;8009;50.070;8.232;2023-04-22T15:22:38;24.37;;;23.47;;
15816;SDS011;8009;50.070;8.232;2023-04-22T15:25:08;25.57;;;24.57;;
15816;SDS011;8009;50.070;8.232;2023-04-22T15:27:37;25.63;;;24.63;;
15816;SDS011;8009;50.070;8.232;2023-04-22T15:30:09;24.23;;;23.33;;
15816;SDS011;8009;50.070;8.232;2023-04-22T15:32:39;24.13;;;23.23;;
15816;SDS011;8009;50.070;8.232;2023-04-22T15:35:08;25.23;;;24.23;;
15816;SDS011;8009;50.070;8.232;2023-04-22T15:37:38;21.80;;;21.00;;
15816;SDS011;8009;50.070;8.232;2023-04-22T15:40:07;23.83;;;22.93;;
15816;SDS011;8009;50.070;8.232;2023-04-22T15:42:36;26.10;;;25.10;;
15816;SDS011;8009;50.070;8.232;2023-04-22T15:45:09;26.57;;;25.57;;
15816;SDS011;8009;50.070;8.232;2023-04-22T15:47:40;26.93;;;25.90;;
15816;SDS011;8009;50.070;8.232;2023-04-22T15:50:09;24.00;;;23.10;;
15816;SDS011;8009;50.070;8.232;2023-04-22T15:52:38;23.93;;;23.03;;
15816;SDS011;8009;50.070;8.232;2023-04-22T15:55:06;16.23;;;15.63;;
15816;SDS011;8009;50.070;8.232;2023-04-22T15:57:35;17.07;;;16.43;;
15816;SDS011;8009;50.070;8.232;2023-04-22T16:00:05;17.07;;;16.43;;
15816;SDS011;8009;50.070;8.232;2023-04-22T16:02:37;21.33;;;20.53;;
15816;SDS011;8009;50.070;8.232;2023-04-22T16:05:07;20.80;;;20.00;;
15816;SDS011;8009;50.070;8.232;2023-04-22T16:07:35;18.53;;;17.83;;
15816;SDS011;8009;50.070;8.232;2023-04-22T16:10:04;14.50;;;14.00;;
15816;SDS011;8009;50.070;8.232;2023-04-22T16:12:34;13.47;;;12.97;;
15816;SDS011;8009;50.070;8.232;2023-04-22T16:15:02;20.38;;;19.58;;
15816;SDS011;8009;50.070;8.232;2023-04-22T16:17:34;18.53;;;17.83;;
15816;SDS011;8009;50.070;8.232;2023-04-22T16:20:03;22.07;;;21.23;;
15816;SDS011;8009;50.070;8.232;2023-04-22T16:22:32;22.07;;;21.23;;
15816;SDS011;8009;50.070;8.232;2023-04-22T16:25:01;31.50;;;30.30;;
15816;SDS011;8009;50.070;8.232;2023-04-22T16:27:30;38.53;;;37.03;;
15816;SDS011;8009;50.070;8.232;2023-04-22T16:29:59;41.53;;;39.90;;
15816;SDS011;8009;50.070;8.232;2023-04-22T16:32:27;41.57;;;39.93;;
15816;SDS011;8009;50.070;8.232;2023-04-22T16:34:58;47.27;;;45.37;;
15816;SDS011;8009;50.070;8.232;2023-04-22T16:37:26;38.60;;;37.10;;
15816;SDS011;8009;50.070;8.232;2023-04-22T16:39:55;36.60;;;35.20;;
15816;SDS011;8009;50.070;8.232;2023-04-22T16:42:23;31.03;;;29.83;;
15816;SDS011;8009;50.070;8.232;2023-04-22T16:44:51;33.40;;;32.10;;
15816;SDS011;8009;50.070;8.232;2023-04-22T16:47:20;37.43;;;35.93;;
15816;SDS011;8009;50.070;8.232;2023-04-22T16:49:48;42.70;;;41.00;;
15816;SDS011;8009;50.070;8.232;2023-04-22T16:52:19;41.53;;;39.87;;
15816;SDS011;8009;50.070;8.232;2023-04-22T16:54:50;40.03;;;38.43;;
15816;SDS011;8009;50.070;8.232;2023-04-22T16:57:18;45.10;;;43.30;;
15816;SDS011;8009;50.070;8.232;2023-04-22T16:59:47;37.23;;;35.77;;
15816;SDS011;8009;50.070;8.232;2023-04-22T17:02:15;34.93;;;33.53;;
15816;SDS011;8009;50.070;8.232;2023-04-22T17:04:44;35.97;;;34.53;;
15816;SDS011;8009;50.070;8.232;2023-04-22T17:07:12;37.77;;;36.27;;
15816;SDS011;8009;50.070;8.232;2023-04-22T17:09:43;26.80;;;25.77;;
15816;SDS011;8009;50.070;8.232;2023-04-22T17:12:13;53.67;;;51.50;;
15816;SDS011;8009;50.070;8.232;2023-04-22T17:14:41;67.43;;;64.50;;
15816;SDS011;8009;50.070;8.232;2023-04-22T17:17:09;64.23;;;61.63;;
15816;SDS011;8009;50.070;8.232;2023-04-22T17:19:38;38.17;;;36.67;;
15816;SDS011;8009;50.070;8.232;2023-04-22T17:22:09;28.73;;;27.63;;
15816;SDS011;8009;50.070;8.232;2023-04-22T17:24:37;42.60;;;40.93;;
15816;SDS011;8009;50.070;8.232;2023-04-22T17:27:10;33.20;;;31.90;;
15816;SDS011;8009;50.070;8.232;2023-04-22T17:29:40;12.13;;;11.67;;
15816;SDS011;8009;50.070;8.232;2023-04-22T17:32:09;14.63;;;14.13;;
15816;SDS011;8009;50.070;8.232;2023-04-22T17:34:37;13.70;;;13.20;;
15816;SDS011;8009;50.070;8.232;2023-04-22T17:37:06;15.07;;;14.50;;
15816;SDS011;8009;50.070;8.232;2023-04-22T17:39:34;15.67;;;15.07;;
15816;SDS011;8009;50.070;8.232;2023-04-22T17:42:04;14.97;;;14.43;;
15816;SDS011;8009;50.070;8.232;2023-04-22T17:44:35;15.13;;;14.53;;
15816;SDS011;8009;50.070;8.232;2023-04-22T17:47:04;15.77;;;15.17;;
15816;SDS011;8009;50.070;8.232;2023-04-22T17:49:33;14.23;;;13.73;;
15816;SDS011;8009;50.070;8.232;2023-04-22T17:52:01;14.40;;;13.83;;
15816;SDS011;8009;50.070;8.232;2023-04-22T17:54:29;12.87;;;12.37;;
15816;SDS011;8009;50.070;8.232;2023-04-22T17:56:58;23.53;;;22.43;;
15816;SDS011;8009;50.070;8.232;2023-04-22T17:59:27;14.27;;;13.77;;
15816;SDS011;8009;50.070;8.232;2023-04-22T18:01:58;15.40;;;14.80;;
15816;SDS011;8009;50.070;8.232;2023-04-22T18:04:29;15.50;;;14.90;;
15816;SDS011;8009;50.070;8.232;2023-04-22T18:06:58;14.37;;;13.87;;
15816;SDS011;8009;50.070;8.232;2023-04-22T18:09:26;13.73;;;13.23;;
15816;SDS011;8009;50.070;8.232;2023-04-22T18:11:55;11.90;;;11.40;;
15816;SDS011;8009;50.070;8.232;2023-04-22T18:14:24;12.83;;;12.33;;
15816;SDS011;8009;50.070;8.232;2023-04-22T18:16:52;12.00;;;11.60;;
15816;SDS011;8009;50.070;8.232;2023-04-22T18:19:23;12.83;;;12.33;;
15816;SDS011;8009;50.070;8.232;2023-04-22T18:21:52;14.87;;;14.33;;
15816;SDS011;8009;50.070;8.232;2023-04-22T18:24:20;15.07;;;14.50;;
15816;SDS011;8009;50.070;8.232;2023-04-22T18:26:49;12.37;;;11.90;;
15816;SDS011;8009;50.070;8.232;2023-04-22T18:29:18;14.50;;;14.00;;
15816;SDS011;8009;50.070;8.232;2023-04-22T18:31:47;13.47;;;12.97;;
15816;SDS011;8009;50.070;8.232;2023-04-22T18:34:15;13.20;;;12.70;;
15816;SDS011;8009;50.070;8.232;2023-04-22T18:36:46;12.70;;;12.23;;
15816;SDS011;8009;50.070;8.232;2023-04-22T18:39:14;17.70;;;17.00;;
15816;SDS011;8009;50.070;8.232;2023-04-22T18:41:43;18.47;;;17.77;;
15816;SDS011;8009;50.070;8.232;2023-04-22T18:44:11;14.50;;;14.00;;
15816;SDS011;8009;50.070;8.232;2023-04-22T18:46:40;13.70;;;13.20;;
15816;SDS011;8009;50.070;8.232;2023-04-22T18:49:08;11.73;;;11.33;;
15816;SDS011;8009;50.070;8.232;2023-04-22T18:51:37;12.03;;;11.53;;
15816;SDS011;8009;50.070;8.232;2023-04-22T18:54:08;14.37;;;13.87;;
15816;SDS011;8009;50.070;8.232;2023-04-22T18:56:36;14.97;;;14.40;;
15816;SDS011;8009;50.070;8.232;2023-04-22T18:59:05;16.23;;;15.63;;
15816;SDS011;8009;50.070;8.232;2023-04-22T19:01:33;16.10;;;15.50;;
15816;SDS011;8009;50.070;8.232;2023-04-22T19:04:02;16.90;;;16.30;;
15816;SDS011;8009;50.070;8.232;2023-04-22T19:06:33;15.23;;;14.63;;
15816;SDS011;8009;50.070;8.232;2023-04-22T19:09:02;14.43;;;13.93;;
15816;SDS011;8009;50.070;8.232;2023-04-22T19:11:33;12.97;;;12.47;;
15816;SDS011;8009;50.070;8.232;2023-04-22T19:14:01;13.23;;;12.73;;
15816;SDS011;8009;50.070;8.232;2023-04-22T19:16:30;14.33;;;13.83;;
15816;SDS011;8009;50.070;8.232;2023-04-22T19:18:58;13.87;;;13.37;;
15816;SDS011;8009;50.070;8.232;2023-04-22T19:21:26;15.03;;;14.43;;
15816;SDS011;8009;50.070;8.232;2023-04-22T19:23:56;15.20;;;14.60;;